sensor_id;sensor_type;location;lat;lon;timestamp;P1;durP1;ratioP1;P2;durP2;ratioP2
5163;SDS011;2601;50.224;10.126;2022-12-18T04:08:38;34.35;;;15.05;;
5163;SDS011;2601;50.224;10.126;2022-12-18T04:11:05;31.23;;;14.75;;
5163;SDS011;2601;50.224;10.126;2022-12-18T04:13:35;35.30;;;15.23;;
5163;SDS011;2601;50.224;10.126;2022-12-18T04:16:02;32.17;;;15.32;;
5163;SDS011;2601;50.224;10.126;2022-12-18T04:18:28;25.35;;;14.18;;
5163;SDS011;2601;50.224;10.126;2022-12-18T04:20:53;30.93;;;15.00;;
5163;SDS011;2601;50.224;10.126;2022-12-18T04:23:19;28.00;;;15.33;;
5163;SDS011;2601;50.224;10.126;2022-12-18T04:25:45;17.10;;;12.50;;
5163;SDS011;2601;50.224;10.126;2022-12-18T04:28:12;27.20;;;14.40;;
5163;SDS011;2601;50.224;10.126;2022-12-18T04:30:38;22.87;;;14.60;;
5163;SDS011;2601;50.224;10.126;2022-12-18T04:33:03;28.37;;;12.13;;
5163;SDS011;2601;50.224;10.126;2022-12-18T04:35:32;34.22;;;16.75;;
5163;SDS011;2601;50.224;10.126;2022-12-18T04:37:58;28.67;;;15.10;;
5163;SDS011;2601;50.224;10.126;2022-12-18T04:40:24;20.60;;;13.00;;
5163;SDS011;2601;50.224;10.126;2022-12-18T04:42:49;27.60;;;15.53;;
5163;SDS011;2601;50.224;10.126;2022-12-18T04:45:15;29.00;;;15.60;;
5163;SDS011;2601;50.224;10.126;2022-12-18T04:47:41;30.63;;;15.50;;
5163;SDS011;2601;50.224;10.126;2022-12-18T04:50:07;23.63;;;14.33;;
5163;SDS011;2601;50.224;10.126;2022-12-18T04:52:33;25.17;;;15.93;;
5163;SDS011;2601;50.224;10.126;2022-12-18T04:54:58;33.37;;;17.10;;
5163;SDS011;2601;50.224;10.126;2022-12-18T04:57:24;31.37;;;16.77;;
5163;SDS011;2601;50.224;10.126;2022-12-18T04:59:50;29.73;;;16.70;;
5163;SDS011;2601;50.224;10.126;2022-12-18T05:02:15;27.57;;;14.97;;
5163;SDS011;2601;50.224;10.126;2022-12-18T05:04:41;30.00;;;15.50;;
5163;SDS011;2601;50.224;10.126;2022-12-18T05:07:06;34.27;;;14.63;;
5163;SDS011;2601;50.224;10.126;2022-12-18T05:09:32;25.40;;;15.17;;
5163;SDS011;2601;50.224;10.126;2022-12-18T05:11:58;21.67;;;12.10;;
5163;SDS011;2601;50.224;10.126;2022-12-18T05:14:23;28.40;;;14.93;;
5163;SDS011;2601;50.224;10.126;2022-12-18T05:16:49;24.73;;;14.17;;
5163;SDS011;2601;50.224;10.126;2022-12-18T05:19:15;30.47;;;15.50;;
5163;SDS011;2601;50.224;10.126;2022-12-18T05:21:40;32.23;;;15.40;;
5163;SDS011;2601;50.224;10.126;2022-12-18T05:24:06;36.70;;;15.20;;
5163;SDS011;2601;50.224;10.126;2022-12-18T05:26:32;27.73;;;14.80;;
5163;SDS011;2601;50.224;10.126;2022-12-18T05:28:57;29.00;;;15.53;;
5163;SDS011;2601;50.224;10.126;2022-12-18T05:31:23;33.27;;;16.17;;
5163;SDS011;2601;50.224;10.126;2022-12-18T05:33:49;29.60;;;15.83;;
5163;SDS011;2601;50.224;10.126;2022-12-18T05:36:14;30.63;;;15.63;;
5163;SDS011;2601;50.224;10.126;2022-12-18T05:38:40;22.40;;;12.73;;
5163;SDS011;2601;50.224;10.126;2022-12-18T05:41:06;25.77;;;14.30;;
5163;SDS011;2601;50.224;10.126;2022-12-18T05:43:33;23.38;;;14.95;;
5163;SDS011;2601;50.224;10.126;2022-12-18T05:46:05;28.98;;;13.32;;
5163;SDS011;2601;50.224;10.126;2022-12-18T05:48:31;27.95;;;13.40;;
5163;SDS011;2601;50.224;10.126;2022-12-18T05:51:02;20.83;;;11.97;;
5163;SDS011;2601;50.224;10.126;2022-12-18T05:53:29;33.53;;;14.80;;
5163;SDS011;2601;50.224;10.126;2022-12-18T05:55:59;25.63;;;12.63;;
5163;SDS011;2601;50.224;10.126;2022-12-18T05:58:25;19.73;;;11.02;;
5163;SDS011;2601;50.224;10.126;2022-12-18T06:00:51;36.53;;;14.40;;
5163;SDS011;2601;50.224;10.126;2022-12-18T06:03:17;28.07;;;14.83;;
5163;SDS011;2601;50.224;10.126;2022-12-18T06:05:44;24.07;;;12.70;;
5163;SDS011;2601;50.224;10.126;2022-12-18T06:08:10;29.35;;;16.60;;
5163;SDS011;2601;50.224;10.126;2022-12-18T06:10:37;23.65;;;14.00;;
5163;SDS011;2601;50.224;10.126;2022-12-18T06:13:03;24.77;;;12.63;;
5163;SDS011;2601;50.224;10.126;2022-12-18T06:15:28;23.83;;;12.87;;
5163;SDS011;2601;50.224;10.126;2022-12-18T06:17:54;19.53;;;13.23;;
5163;SDS011;2601;50.224;10.126;2022-12-18T06:20:20;24.93;;;13.87;;
5163;SDS011;2601;50.224;10.126;2022-12-18T06:22:46;26.58;;;14.45;;
5163;SDS011;2601;50.224;10.126;2022-12-18T06:25:12;18.40;;;8.90;;
5163;SDS011;2601;50.224;10.126;2022-12-18T06:27:37;23.23;;;14.03;;
5163;SDS011;2601;50.224;10.126;2022-12-18T06:30:04;21.47;;;12.80;;
5163;SDS011;2601;50.224;10.126;2022-12-18T06:32:30;33.17;;;17.80;;
5163;SDS011;2601;50.224;10.126;2022-12-18T06:34:56;22.97;;;13.30;;
5163;SDS011;2601;50.224;10.126;2022-12-18T06:37:22;32.83;;;16.87;;
5163;SDS011;2601;50.224;10.126;2022-12-18T15:34:25;38.10;;;19.70;;
5163;SDS011;2601;50.224;10.126;2022-12-18T15:36:52;53.42;;;27.55;;
5163;SDS011;2601;50.224;10.126;2022-12-18T15:39:18;51.90;;;26.43;;
5163;SDS011;2601;50.224;10.126;2022-12-18T15:41:44;54.17;;;22.53;;
5163;SDS011;2601;50.224;10.126;2022-12-18T15:44:29;43.67;;;19.30;;
5163;SDS011;2601;50.224;10.126;2022-12-18T15:46:55;47.80;;;18.27;;
5163;SDS011;2601;50.224;10.126;2022-12-18T15:49:22;37.45;;;18.40;;
5163;SDS011;2601;50.224;10.126;2022-12-18T15:51:58;38.77;;;17.50;;
5163;SDS011;2601;50.224;10.126;2022-12-18T15:54:26;42.15;;;19.67;;
5163;SDS011;2601;50.224;10.126;2022-12-18T15:57:12;50.58;;;22.25;;
5163;SDS011;2601;50.224;10.126;2022-12-18T15:59:54;31.90;;;18.23;;
5163;SDS011;2601;50.224;10.126;2022-12-18T16:02:24;42.95;;;20.38;;
5163;SDS011;2601;50.224;10.126;2022-12-18T16:04:50;43.10;;;21.30;;
5163;SDS011;2601;50.224;10.126;2022-12-18T16:07:17;36.92;;;20.38;;
5163;SDS011;2601;50.224;10.126;2022-12-18T16:09:43;48.00;;;20.95;;
5163;SDS011;2601;50.224;10.126;2022-12-18T16:12:21;42.33;;;21.90;;
5163;SDS011;2601;50.224;10.126;2022-12-18T16:14:49;41.42;;;20.15;;
5163;SDS011;2601;50.224;10.126;2022-12-18T16:17:14;52.33;;;21.40;;
5163;SDS011;2601;50.224;10.126;2022-12-18T16:19:40;43.03;;;21.40;;
5163;SDS011;2601;50.224;10.126;2022-12-18T16:22:08;48.43;;;20.80;;
5163;SDS011;2601;50.224;10.126;2022-12-18T16:24:46;44.80;;;21.77;;
5163;SDS011;2601;50.224;10.126;2022-12-18T16:27:12;40.53;;;21.40;;
5163;SDS011;2601;50.224;10.126;2022-12-18T16:29:37;43.37;;;20.40;;
5163;SDS011;2601;50.224;10.126;2022-12-18T16:32:03;39.53;;;21.97;;
5163;SDS011;2601;50.224;10.126;2022-12-18T16:34:30;44.73;;;20.97;;
5163;SDS011;2601;50.224;10.126;2022-12-18T16:36:59;42.35;;;20.52;;
5163;SDS011;2601;50.224;10.126;2022-12-18T16:39:27;47.92;;;23.70;;
5163;SDS011;2601;50.224;10.126;2022-12-18T16:41:53;38.33;;;21.30;;
5163;SDS011;2601;50.224;10.126;2022-12-18T16:44:19;39.30;;;20.60;;
5163;SDS011;2601;50.224;10.126;2022-12-18T16:46:45;38.80;;;20.52;;
5163;SDS011;2601;50.224;10.126;2022-12-18T16:49:12;41.47;;;22.33;;
5163;SDS011;2601;50.224;10.126;2022-12-18T16:51:38;49.33;;;22.65;;
5163;SDS011;2601;50.224;10.126;2022-12-18T16:54:05;51.27;;;22.00;;
5163;SDS011;2601;50.224;10.126;2022-12-18T16:56:32;41.33;;;20.27;;
5163;SDS011;2601;50.224;10.126;2022-12-18T16:58:59;42.50;;;22.40;;
5163;SDS011;2601;50.224;10.126;2022-12-18T17:01:27;38.30;;;20.60;;
5163;SDS011;2601;50.224;10.126;2022-12-18T17:03:56;43.55;;;21.02;;
5163;SDS011;2601;50.224;10.126;2022-12-18T17:06:24;45.10;;;20.70;;
5163;SDS011;2601;50.224;10.126;2022-12-18T17:08:55;45.88;;;21.40;;
5163;SDS011;2601;50.224;10.126;2022-12-18T17:11:22;46.70;;;20.92;;
5163;SDS011;2601;50.224;10.126;2022-12-18T17:13:49;38.13;;;20.50;;
5163;SDS011;2601;50.224;10.126;2022-12-18T17:16:15;37.97;;;19.90;;
5163;SDS011;2601;50.224;10.126;2022-12-18T17:18:41;44.13;;;21.73;;
5163;SDS011;2601;50.224;10.126;2022-12-18T17:21:08;47.28;;;21.70;;
5163;SDS011;2601;50.224;10.126;2022-12-18T17:23:35;48.95;;;21.58;;
5163;SDS011;2601;50.224;10.126;2022-12-18T17:26:02;48.53;;;19.73;;
5163;SDS011;2601;50.224;10.126;2022-12-18T17:28:31;37.03;;;18.33;;
5163;SDS011;2601;50.224;10.126;2022-12-18T17:30:58;53.88;;;24.35;;
5163;SDS011;2601;50.224;10.126;2022-12-18T17:33:24;54.03;;;25.70;;
5163;SDS011;2601;50.224;10.126;2022-12-18T17:35:50;58.47;;;30.47;;
5163;SDS011;2601;50.224;10.126;2022-12-18T17:38:16;57.10;;;30.57;;
5163;SDS011;2601;50.224;10.126;2022-12-18T17:40:42;60.92;;;30.67;;
5163;SDS011;2601;50.224;10.126;2022-12-18T17:43:08;92.87;;;37.53;;
5163;SDS011;2601;50.224;10.126;2022-12-18T17:45:35;62.45;;;32.22;;
5163;SDS011;2601;50.224;10.126;2022-12-18T17:48:04;53.05;;;23.45;;
5163;SDS011;2601;50.224;10.126;2022-12-18T17:50:32;70.32;;;31.50;;
5163;SDS011;2601;50.224;10.126;2022-12-18T17:52:58;64.00;;;29.00;;
5163;SDS011;2601;50.224;10.126;2022-12-18T17:55:24;50.33;;;25.40;;
5163;SDS011;2601;50.224;10.126;2022-12-18T17:57:50;40.80;;;22.85;;
5163;SDS011;2601;50.224;10.126;2022-12-18T18:00:16;42.95;;;19.33;;
5163;SDS011;2601;50.224;10.126;2022-12-18T18:02:42;57.23;;;29.03;;
5163;SDS011;2601;50.224;10.126;2022-12-18T18:05:08;42.57;;;23.60;;
5163;SDS011;2601;50.224;10.126;2022-12-18T18:07:34;49.07;;;22.50;;
5163;SDS011;2601;50.224;10.126;2022-12-18T18:10:00;38.63;;;21.63;;
5163;SDS011;2601;50.224;10.126;2022-12-18T18:12:25;42.63;;;23.57;;
5163;SDS011;2601;50.224;10.126;2022-12-18T18:15:09;32.43;;;17.53;;
5163;SDS011;2601;50.224;10.126;2022-12-18T18:17:35;38.40;;;19.50;;
5163;SDS011;2601;50.224;10.126;2022-12-18T18:20:01;35.30;;;18.63;;
5163;SDS011;2601;50.224;10.126;2022-12-18T18:22:27;41.27;;;18.67;;
5163;SDS011;2601;50.224;10.126;2022-12-18T18:24:52;38.97;;;19.00;;
5163;SDS011;2601;50.224;10.126;2022-12-18T18:27:18;40.00;;;18.97;;
5163;SDS011;2601;50.224;10.126;2022-12-18T18:29:44;46.27;;;22.53;;
5163;SDS011;2601;50.224;10.126;2022-12-18T18:32:10;50.73;;;24.10;;
5163;SDS011;2601;50.224;10.126;2022-12-18T18:34:35;41.60;;;19.00;;
5163;SDS011;2601;50.224;10.126;2022-12-18T18:37:01;40.10;;;19.03;;
5163;SDS011;2601;50.224;10.126;2022-12-18T18:39:27;36.87;;;19.00;;
5163;SDS011;2601;50.224;10.126;2022-12-18T18:41:53;44.27;;;21.40;;
5163;SDS011;2601;50.224;10.126;2022-12-18T18:44:19;42.37;;;19.87;;
5163;SDS011;2601;50.224;10.126;2022-12-18T18:46:46;36.23;;;18.37;;
5163;SDS011;2601;50.224;10.126;2022-12-18T18:49:12;32.93;;;17.40;;
5163;SDS011;2601;50.224;10.126;2022-12-18T18:51:39;28.97;;;16.07;;
5163;SDS011;2601;50.224;10.126;2022-12-18T18:54:05;31.87;;;16.90;;
5163;SDS011;2601;50.224;10.126;2022-12-18T18:56:31;35.90;;;18.90;;
5163;SDS011;2601;50.224;10.126;2022-12-18T18:58:58;35.83;;;17.87;;
5163;SDS011;2601;50.224;10.126;2022-12-18T19:01:24;40.67;;;19.93;;
5163;SDS011;2601;50.224;10.126;2022-12-18T19:03:51;33.43;;;14.73;;
5163;SDS011;2601;50.224;10.126;2022-12-18T19:06:24;52.20;;;24.00;;
5163;SDS011;2601;50.224;10.126;2022-12-18T19:08:52;31.90;;;17.97;;
5163;SDS011;2601;50.224;10.126;2022-12-18T19:11:19;40.47;;;21.33;;
5163;SDS011;2601;50.224;10.126;2022-12-18T19:14:06;44.20;;;21.43;;
5163;SDS011;2601;50.224;10.126;2022-12-18T19:16:33;44.10;;;22.97;;
5163;SDS011;2601;50.224;10.126;2022-12-18T19:19:00;53.93;;;24.63;;
5163;SDS011;2601;50.224;10.126;2022-12-18T19:21:26;44.87;;;22.60;;
5163;SDS011;2601;50.224;10.126;2022-12-18T19:23:52;37.97;;;19.90;;
5163;SDS011;2601;50.224;10.126;2022-12-18T19:26:18;42.50;;;21.47;;
5163;SDS011;2601;50.224;10.126;2022-12-18T19:28:45;55.17;;;24.03;;
5163;SDS011;2601;50.224;10.126;2022-12-18T19:31:12;45.03;;;23.97;;
5163;SDS011;2601;50.224;10.126;2022-12-18T19:33:40;49.33;;;23.60;;
5163;SDS011;2601;50.224;10.126;2022-12-18T19:38:41;33.10;;;17.73;;
5163;SDS011;2601;50.224;10.126;2022-12-18T19:41:07;38.07;;;20.07;;
5163;SDS011;2601;50.224;10.126;2022-12-18T19:43:33;36.17;;;18.40;;
5163;SDS011;2601;50.224;10.126;2022-12-18T19:46:02;35.97;;;18.47;;
5163;SDS011;2601;50.224;10.126;2022-12-18T19:48:31;32.00;;;16.83;;
5163;SDS011;2601;50.224;10.126;2022-12-18T19:50:58;39.03;;;19.13;;
5163;SDS011;2601;50.224;10.126;2022-12-18T19:53:29;46.67;;;21.50;;
5163;SDS011;2601;50.224;10.126;2022-12-18T19:55:55;34.63;;;18.70;;
5163;SDS011;2601;50.224;10.126;2022-12-18T19:58:20;49.83;;;23.83;;
5163;SDS011;2601;50.224;10.126;2022-12-18T20:00:46;66.83;;;27.37;;
5163;SDS011;2601;50.224;10.126;2022-12-18T20:03:12;97.30;;;36.90;;
5163;SDS011;2601;50.224;10.126;2022-12-18T20:05:38;102.27;;;42.43;;
5163;SDS011;2601;50.224;10.126;2022-12-18T20:08:03;125.47;;;53.80;;
5163;SDS011;2601;50.224;10.126;2022-12-18T20:10:29;86.50;;;38.43;;
5163;SDS011;2601;50.224;10.126;2022-12-18T20:12:56;75.83;;;35.93;;
5163;SDS011;2601;50.224;10.126;2022-12-18T20:15:22;59.07;;;27.77;;
5163;SDS011;2601;50.224;10.126;2022-12-18T20:17:48;55.97;;;26.07;;
5163;SDS011;2601;50.224;10.126;2022-12-18T20:20:13;50.53;;;25.50;;
5163;SDS011;2601;50.224;10.126;2022-12-18T20:22:39;63.30;;;30.17;;
5163;SDS011;2601;50.224;10.126;2022-12-18T20:25:05;50.00;;;24.47;;
5163;SDS011;2601;50.224;10.126;2022-12-18T20:27:31;48.20;;;25.20;;
5163;SDS011;2601;50.224;10.126;2022-12-18T20:29:57;38.30;;;19.33;;
5163;SDS011;2601;50.224;10.126;2022-12-18T20:32:22;41.97;;;21.30;;
5163;SDS011;2601;50.224;10.126;2022-12-18T20:34:49;49.10;;;22.57;;
5163;SDS011;2601;50.224;10.126;2022-12-18T20:37:15;59.40;;;25.03;;
5163;SDS011;2601;50.224;10.126;2022-12-18T20:39:40;32.07;;;18.67;;
5163;SDS011;2601;50.224;10.126;2022-12-18T20:42:06;28.47;;;16.50;;
5163;SDS011;2601;50.224;10.126;2022-12-18T20:44:32;33.23;;;17.40;;
